Time;durP1;ratioP1;P1;durP2;ratioP2;P2;SDS_P1;SDS_P2;PMS_P1;PMS_P2;Temp;Humidity;BMP_temperature;BMP_pressure;BME280_temperature;BME280_humidity;BME280_pressure;Samples;Min_cycle;Max_cycle;Signal;HPM_P1;HPM_P2
2021/07/17 00:01:59;;;;;;;;;13.50;12.25;;;;;23.09;46.65;102004.88;5076380;27;45256;-59
2021/07/17 00:04:26;;;;;;;;;12.25;11.00;;;;;23.07;46.45;102007.59;5074591;28;47690;-59
2021/07/17 00:06:51;;;;;;;;;13.50;13.00;;;;;23.08;46.55;102009.31;5074782;28;45959;-49
2021/07/17 00:09:17;;;;;;;;;15.75;12.25;;;;;23.06;46.87;102005.00;5077202;27;45342;-49
2021/07/17 00:11:42;;;;;;;;;11.00;10.50;;;;;23.05;46.52;102001.50;5079859;27;45576;-49
2021/07/17 00:14:07;;;;;;;;;14.00;13.00;;;;;23.07;46.36;102006.72;5079835;27;45320;-48
2021/07/17 00:16:34;;;;;;;;;17.50;14.25;;;;;23.05;46.42;102005.94;5079844;27;45389;-49
2021/07/17 00:18:59;;;;;;;;;15.25;13.00;;;;;23.06;46.32;102012.94;5079538;27;45263;-51
2021/07/17 00:21:25;;;;;;;;;12.75;12.00;;;;;23.04;46.49;102006.88;5079661;27;45486;-52
2021/07/17 00:23:51;;;;;;;;;18.25;15.50;;;;;23.05;46.66;102011.22;5079321;27;46258;-51
2021/07/17 00:26:16;;;;;;;;;12.25;11.50;;;;;23.06;46.58;102013.81;5079285;27;45388;-51
2021/07/17 00:28:41;;;;;;;;;14.75;12.50;;;;;23.04;46.27;102007.72;5079453;27;45236;-50
2021/07/17 00:31:07;;;;;;;;;14.25;13.00;;;;;23.04;46.80;102005.09;5078529;28;45282;-48
2021/07/17 00:33:32;;;;;;;;;16.75;14.25;;;;;23.03;46.50;102007.81;5079117;27;45463;-48
2021/07/17 00:35:57;;;;;;;;;13.00;11.50;;;;;23.04;46.60;102007.72;5079139;27;45332;-48
2021/07/17 00:38:23;;;;;;;;;12.75;11.75;;;;;23.04;46.50;102007.72;5078985;27;45154;-49
2021/07/17 00:40:48;;;;;;;;;11.50;11.50;;;;;23.05;46.53;102008.56;5079380;27;45145;-48
2021/07/17 00:43:15;;;;;;;;;15.75;13.00;;;;;23.03;46.30;102013.94;5079057;27;45333;-48
2021/07/17 00:45:40;;;;;;;;;13.75;13.75;;;;;23.04;46.61;102006.88;5078920;27;45311;-52
2021/07/17 00:48:06;;;;;;;;;14.50;13.75;;;;;22.99;46.40;102002.66;5079426;27;45386;-48
2021/07/17 00:50:31;;;;;;;;;11.75;11.25;;;;;23.04;46.52;102009.53;5079304;27;45632;-48
2021/07/17 00:52:56;;;;;;;;;15.00;12.75;;;;;23.03;46.76;102011.31;5078861;27;45388;-49
2021/07/17 00:55:26;;;;;;;;;12.75;12.00;;;;;23.03;46.47;102013.09;5079042;27;45441;-48
2021/07/17 00:57:53;;;;;;;;;15.25;9.50;;;;;23.03;46.69;102013.09;5079044;27;45437;-51
2021/07/17 01:00:18;;;;;;;;;15.25;13.50;;;;;23.02;46.60;102012.22;5079223;27;45442;-48
2021/07/17 01:02:52;;;;;;;;;18.25;15.00;;;;;23.00;46.54;102012.31;5078608;27;46124;-51
2021/07/17 01:05:18;;;;;;;;;17.25;14.00;;;;;23.00;46.67;102012.31;5078823;27;45828;-52
2021/07/17 01:07:47;;;;;;;;;12.50;12.50;;;;;23.01;46.69;102021.09;5078770;27;45350;-50
2021/07/17 01:10:15;;;;;;;;;14.25;13.00;;;;;22.99;46.76;102012.38;5078937;27;45383;-49
2021/07/17 01:12:40;;;;;;;;;17.25;15.75;;;;;22.98;46.78;102013.31;5078986;27;45418;-49
2021/07/17 01:15:07;;;;;;;;;20.75;15.25;;;;;22.97;46.41;102015.09;5078902;27;45353;-49
2021/07/17 01:17:34;;;;;;;;;16.75;14.75;;;;;22.98;46.67;102008.03;5078623;27;45295;-52
2021/07/17 01:19:59;;;;;;;;;15.50;15.50;;;;;22.99;46.83;102012.38;5078418;27;45451;-58
2021/07/17 01:22:25;;;;;;;;;14.50;12.25;;;;;22.97;46.72;102007.16;5077542;27;45448;-53
2021/07/17 01:24:51;;;;;;;;;16.50;14.75;;;;;22.98;46.90;102011.53;5077192;27;45279;-51
2021/07/17 01:27:17;;;;;;;;;15.25;14.00;;;;;22.97;46.61;102008.97;5078545;27;45451;-49
2021/07/17 01:29:44;;;;;;;;;16.50;15.25;;;;;22.94;46.83;102004.66;5078609;27;45393;-52
2021/07/17 01:32:10;;;;;;;;;19.50;18.50;;;;;22.95;46.70;102011.66;5078473;27;45907;-48
2021/07/17 01:34:35;;;;;;;;;10.75;10.75;;;;;22.94;46.73;101999.38;5078195;27;45343;-49
2021/07/17 01:37:01;;;;;;;;;14.50;13.25;;;;;22.97;46.64;101998.38;5078259;27;45476;-50
2021/07/17 01:39:26;;;;;;;;;18.25;13.50;;;;;22.96;46.76;102004.59;5078334;27;45566;-49
2021/07/17 01:41:51;;;;;;;;;18.50;15.50;;;;;22.95;46.76;101994.94;5077741;27;54779;-51
2021/07/17 01:44:17;;;;;;;;;12.75;11.50;;;;;22.93;46.54;101992.34;5078063;27;45785;-47
2021/07/17 01:46:43;;;;;;;;;15.00;14.00;;;;;22.96;46.63;102001.97;5078532;27;45374;-51
2021/07/17 01:49:08;;;;;;;;;14.50;13.50;;;;;22.94;46.87;101998.53;5078547;27;45220;-49
2021/07/17 01:51:33;;;;;;;;;15.75;14.25;;;;;22.95;46.82;101998.44;5077883;27;45408;-49
2021/07/17 01:54:00;;;;;;;;;12.75;12.00;;;;;22.95;46.82;101994.94;5077922;27;46786;-48
2021/07/17 01:56:26;;;;;;;;;13.75;10.75;;;;;22.94;46.75;101999.38;5077931;27;45457;-49
2021/07/17 01:58:55;;;;;;;;;13.50;12.25;;;;;22.95;46.85;102006.38;5077993;27;45253;-49
2021/07/17 02:01:22;;;;;;;;;15.50;14.75;;;;;22.94;46.69;101996.72;5077697;27;46529;-49
2021/07/17 02:03:49;;;;;;;;;14.75;14.75;;;;;22.95;46.76;101997.59;5077687;27;45749;-49
2021/07/17 02:06:21;;;;;;;;;15.75;14.50;;;;;22.94;46.95;101999.38;5077782;27;45351;-48
2021/07/17 02:08:47;;;;;;;;;15.75;13.25;;;;;22.94;46.91;102003.81;5078025;27;45401;-48
2021/07/17 02:11:12;;;;;;;;;15.25;14.00;;;;;22.93;46.92;102002.09;5077777;27;46193;-49
2021/07/17 02:13:38;;;;;;;;;13.50;12.00;;;;;22.93;46.74;102004.75;5077579;27;45327;-51
2021/07/17 02:16:03;;;;;;;;;14.25;13.50;;;;;22.89;46.93;102006.66;5077733;27;45425;-49
2021/07/17 02:18:32;;;;;;;;;13.75;11.50;;;;;22.90;46.99;102004.88;5076588;28;45324;-50
2021/07/17 02:21:07;;;;;;;;;13.00;13.00;;;;;22.91;46.95;101999.53;5077421;27;46365;-48
2021/07/17 02:23:36;;;;;;;;;18.50;14.25;;;;;22.91;46.85;101999.53;5077492;27;45859;-49
2021/07/17 02:26:03;;;;;;;;;15.25;12.25;;;;;22.93;46.74;102002.09;5077482;27;45231;-49
2021/07/17 02:28:29;;;;;;;;;15.50;12.75;;;;;22.92;46.93;102008.31;5077702;27;45402;-47
2021/07/17 02:30:54;;;;;;;;;12.75;12.75;;;;;22.91;46.99;102009.22;5077458;28;46712;-49
2021/07/17 02:33:20;;;;;;;;;15.50;14.00;;;;;22.90;46.85;101996.94;5076807;27;45382;-47
2021/07/17 02:35:48;;;;;;;;;15.50;13.25;;;;;22.91;46.91;102004.81;5077538;27;45362;-48
2021/07/17 02:38:14;;;;;;;;;14.50;14.00;;;;;22.91;46.82;102002.19;5077663;27;45413;-48
2021/07/17 02:40:40;;;;;;;;;12.75;12.00;;;;;22.91;47.07;102003.94;5077468;27;47155;-58
2021/07/17 02:43:06;;;;;;;;;15.50;13.25;;;;;22.90;46.98;102007.50;5077317;27;45283;-49
2021/07/17 02:45:31;;;;;;;;;14.75;12.75;;;;;22.90;46.73;102007.50;5077305;27;45325;-57
2021/07/17 02:47:57;;;;;;;;;17.25;12.25;;;;;22.89;47.13;101996.09;5076059;28;45371;-58
2021/07/17 02:50:23;;;;;;;;;14.75;13.25;;;;;22.88;47.28;101998.78;5076934;28;45469;-58
2021/07/17 02:52:48;;;;;;;;;13.00;12.00;;;;;22.88;47.00;102004.09;5076837;27;45756;-58
2021/07/17 02:55:15;;;;;;;;;15.00;14.50;;;;;22.89;47.15;102000.50;5077340;27;45873;-58
2021/07/17 02:57:41;;;;;;;;;17.00;15.50;;;;;22.88;47.00;101998.78;5077165;27;45282;-56
2021/07/17 03:00:09;;;;;;;;;15.00;12.25;;;;;22.88;47.08;101998.78;5076964;27;45361;-59
2021/07/17 03:02:35;;;;;;;;;16.00;13.50;;;;;22.85;46.99;101994.53;5076922;27;45794;-59
2021/07/17 03:05:00;;;;;;;;;13.75;13.00;;;;;22.85;46.87;102000.69;5077052;27;45291;-59
2021/07/17 03:07:25;;;;;;;;;13.75;12.25;;;;;22.87;46.82;102002.41;5077162;27;45592;-59
2021/07/17 03:09:51;;;;;;;;;15.50;14.75;;;;;22.87;46.97;102005.03;5076709;27;46095;-60
2021/07/17 03:12:16;;;;;;;;;15.25;14.50;;;;;22.88;46.94;102009.38;5077068;27;45251;-60
2021/07/17 03:14:42;;;;;;;;;12.75;12.75;;;;;22.87;47.15;102005.03;5077203;27;45891;-58
2021/07/17 03:17:07;;;;;;;;;11.75;11.25;;;;;22.83;46.89;102004.28;5077119;27;45234;-58
2021/07/17 03:19:32;;;;;;;;;11.25;11.25;;;;;22.86;46.64;102012.09;5076623;27;46930;-55
2021/07/17 03:21:58;;;;;;;;;15.00;14.00;;;;;22.82;47.22;102003.47;5076818;27;45245;-59
2021/07/17 03:24:23;;;;;;;;;13.50;13.50;;;;;22.84;47.13;102001.59;5076840;27;45398;-58
2021/07/17 03:26:48;;;;;;;;;13.50;12.50;;;;;22.83;47.05;102001.66;5076919;27;45591;-56
2021/07/17 03:29:14;;;;;;;;;14.00;10.75;;;;;22.83;46.96;102001.66;5077000;27;46113;-53
2021/07/17 03:31:39;;;;;;;;;10.00;10.00;;;;;22.80;46.87;102005.31;5076580;27;45393;-58
2021/07/17 03:34:05;;;;;;;;;17.00;14.75;;;;;22.82;47.39;102006.09;5076719;27;45345;-58
2021/07/17 03:36:30;;;;;;;;;13.50;12.25;;;;;22.82;47.04;102000.81;5076713;27;45362;-57
2021/07/17 03:38:57;;;;;;;;;13.25;13.25;;;;;22.80;46.93;101996.53;5076120;27;46122;-53
2021/07/17 03:41:23;;;;;;;;;14.00;12.75;;;;;22.82;46.75;102006.09;5076448;27;45932;-52
2021/07/17 03:43:49;;;;;;;;;14.50;12.50;;;;;22.82;47.07;102005.25;5076860;27;45404;-52
2021/07/17 03:46:14;;;;;;;;;13.00;13.00;;;;;22.81;47.08;102004.38;5080389;27;45366;-50
2021/07/17 03:48:40;;;;;;;;;12.75;12.00;;;;;22.81;47.03;101996.44;5079882;27;46374;-51
2021/07/17 03:51:06;;;;;;;;;15.00;12.75;;;;;22.78;47.36;101998.38;5079931;27;45272;-54
2021/07/17 03:53:31;;;;;;;;;16.00;12.50;;;;;22.80;47.15;101996.53;5079860;27;45348;-56
2021/07/17 03:55:56;;;;;;;;;12.25;12.25;;;;;22.80;47.17;102000.03;5079960;27;45410;-58
2021/07/17 03:58:22;;;;;;;;;14.25;13.75;;;;;22.81;46.55;101998.25;5079573;27;46060;-51
2021/07/17 04:00:48;;;;;;;;;16.75;16.00;;;;;22.77;47.41;101997.50;5079985;27;45373;-51
2021/07/17 04:03:13;;;;;;;;;16.25;14.50;;;;;22.80;47.27;102007.09;5079934;27;45370;-51
2021/07/17 04:05:39;;;;;;;;;13.00;11.75;;;;;22.78;47.17;102009.81;5079948;27;45514;-53
2021/07/17 04:08:04;;;;;;;;;11.00;11.00;;;;;22.77;47.19;102002.78;5079501;27;45295;-55
2021/07/17 04:10:30;;;;;;;;;13.75;12.75;;;;;22.76;47.27;102011.69;5079852;27;45999;-58
2021/07/17 04:12:55;;;;;;;;;14.50;14.25;;;;;22.76;47.21;102005.53;5079753;27;45366;-53
2021/07/17 04:15:21;;;;;;;;;12.25;12.25;;;;;22.75;47.21;102015.25;5079828;27;45438;-56
2021/07/17 04:17:47;;;;;;;;;20.25;13.00;;;;;22.75;47.63;102017.03;5079539;27;46234;-58
2021/07/17 04:20:13;;;;;;;;;16.25;13.25;;;;;22.73;47.12;102017.09;5079524;28;45982;-57
2021/07/17 04:22:39;;;;;;;;;16.75;14.75;;;;;22.73;47.26;102006.53;5079605;27;45397;-53
2021/07/17 04:25:05;;;;;;;;;16.00;13.25;;;;;22.73;47.78;102011.81;5079569;27;45496;-54
2021/07/17 04:27:31;;;;;;;;;20.00;17.00;;;;;22.72;47.51;102010.09;5079304;27;45362;-51
2021/07/17 04:29:56;;;;;;;;;20.00;18.00;;;;;22.73;47.64;102013.59;5079369;27;45458;-52
2021/07/17 04:32:22;;;;;;;;;20.00;18.00;;;;;22.70;47.29;102017.22;5079474;27;45788;-51
2021/07/17 04:34:47;;;;;;;;;18.25;17.00;;;;;22.69;47.35;102007.59;5079748;27;45583;-56
2021/07/17 04:37:17;;;;;;;;;20.50;18.50;;;;;22.72;47.68;102015.38;5078534;27;45606;-51
2021/07/17 04:39:43;;;;;;;;;20.25;16.25;;;;;22.69;47.57;102004.94;5078865;27;45884;-54
2021/07/17 04:42:10;;;;;;;;;23.75;19.50;;;;;22.72;47.94;102010.09;5079266;27;45562;-49
2021/07/17 04:44:35;;;;;;;;;17.00;16.50;;;;;22.73;47.49;102008.31;5079276;27;45315;-50
2021/07/17 04:47:01;;;;;;;;;18.00;15.25;;;;;22.73;47.58;102009.19;5078979;27;46136;-48
2021/07/17 04:49:26;;;;;;;;;20.25;17.50;;;;;22.74;47.43;102013.53;5078960;27;45373;-49
2021/07/17 04:51:51;;;;;;;;;15.00;14.25;;;;;22.75;47.53;102009.09;5079091;27;45456;-50
2021/07/17 04:54:17;;;;;;;;;16.50;15.75;;;;;22.75;47.58;102015.25;5079639;27;45596;-49
2021/07/17 04:56:42;;;;;;;;;18.00;17.50;;;;;22.76;47.73;102021.38;5077190;28;47414;-49
2021/07/17 04:59:08;;;;;;;;;16.25;14.50;;;;;22.76;47.52;102022.25;5078853;27;45295;-49
2021/07/17 05:01:33;;;;;;;;;17.25;16.50;;;;;22.76;47.32;102024.03;5078981;27;45265;-48
2021/07/17 05:03:58;;;;;;;;;15.75;15.75;;;;;22.76;47.52;102022.25;5079072;27;45538;-49
2021/07/17 05:06:24;;;;;;;;;20.00;18.00;;;;;22.77;47.22;102029.22;5078778;27;46252;-52
2021/07/17 05:08:49;;;;;;;;;18.75;17.00;;;;;22.76;47.36;102032.81;5079079;27;45529;-57
2021/07/17 05:11:14;;;;;;;;;22.75;14.75;;;;;22.77;47.50;102033.66;5078741;27;45295;-54
2021/07/17 05:13:39;;;;;;;;;15.00;15.00;;;;;22.77;47.45;102033.66;5079003;27;45450;-52
2021/07/17 05:16:05;;;;;;;;;14.25;14.25;;;;;22.77;47.74;102034.50;5078388;27;46200;-48
2021/07/17 05:18:32;;;;;;;;;17.75;16.75;;;;;22.78;47.71;102040.69;5078478;27;45271;-50
2021/07/17 05:20:57;;;;;;;;;18.25;15.00;;;;;22.78;47.54;102035.38;5078761;27;45888;-58
2021/07/17 05:23:23;;;;;;;;;16.75;16.75;;;;;22.77;47.58;102031.88;5079223;27;45694;-57
2021/07/17 05:25:50;;;;;;;;;20.00;17.50;;;;;22.78;47.53;102032.75;5078732;27;47069;-56
2021/07/17 05:28:16;;;;;;;;;19.00;17.75;;;;;22.76;47.40;102034.59;5078346;27;45315;-52
2021/07/17 05:30:41;;;;;;;;;22.00;18.00;;;;;22.75;47.47;102033.75;5078402;27;45322;-52
2021/07/17 05:33:07;;;;;;;;;17.50;14.00;;;;;22.76;47.57;102031.94;5078597;27;45534;-52
2021/07/17 05:35:32;;;;;;;;;13.25;13.25;;;;;22.78;47.44;102028.31;5076797;28;48342;-52
2021/07/17 05:37:58;;;;;;;;;15.00;14.75;;;;;22.74;47.57;102024.09;5076836;27;45860;-52
2021/07/17 05:40:24;;;;;;;;;19.00;17.00;;;;;22.74;47.51;102024.09;5078728;27;45284;-49
2021/07/17 05:42:50;;;;;;;;;15.25;14.75;;;;;22.73;47.68;102025.03;5078894;28;45633;-58
2021/07/17 05:45:16;;;;;;;;;17.25;16.00;;;;;22.73;47.15;102025.03;5076741;27;47406;-53
2021/07/17 05:47:42;;;;;;;;;18.25;16.25;;;;;22.72;47.83;102019.78;5078051;27;45375;-53
2021/07/17 05:50:07;;;;;;;;;18.75;16.00;;;;;22.69;47.89;102020.81;5078157;27;45339;-53
2021/07/17 05:52:33;;;;;;;;;20.00;14.75;;;;;22.71;47.73;102021.59;5078328;28;45373;-59
2021/07/17 05:54:58;;;;;;;;;20.00;14.75;;;;;22.69;47.72;102024.31;5077828;27;45937;-53
2021/07/17 05:57:24;;;;;;;;;15.00;13.50;;;;;22.70;47.59;102023.41;5078189;27;45264;-53
2021/07/17 05:59:49;;;;;;;;;19.75;18.00;;;;;22.70;47.63;102028.69;5078070;27;45677;-51
2021/07/17 06:02:15;;;;;;;;;16.50;15.25;;;;;22.69;47.67;102026.09;5078370;27;45398;-50
2021/07/17 06:04:40;;;;;;;;;19.00;18.50;;;;;22.70;47.64;102033.97;5077786;27;46146;-52
2021/07/17 06:07:06;;;;;;;;;17.25;17.25;;;;;22.69;47.75;102034.91;5077003;27;45465;-49
2021/07/17 06:09:31;;;;;;;;;15.75;15.00;;;;;22.67;47.81;102030.59;5077897;27;45320;-52
2021/07/17 06:11:56;;;;;;;;;17.25;14.25;;;;;22.68;47.72;102032.31;5076719;27;45613;-51
2021/07/17 06:14:22;;;;;;;;;22.75;18.25;;;;;22.69;47.49;102026.97;5077749;27;45311;-53
2021/07/17 06:16:48;;;;;;;;;16.75;14.75;;;;;22.70;47.82;102033.09;5077512;28;45384;-51
2021/07/17 06:19:13;;;;;;;;;21.75;16.75;;;;;22.70;47.70;102025.16;5076818;27;45438;-57
2021/07/17 06:21:39;;;;;;;;;19.75;18.25;;;;;22.72;47.78;102035.66;5077766;27;45527;-53
2021/07/17 06:24:05;;;;;;;;;17.75;15.50;;;;;22.72;47.77;102035.66;5077497;27;46071;-56
2021/07/17 06:26:31;;;;;;;;;19.00;14.75;;;;;22.72;47.77;102030.38;5077297;27;45509;-56
2021/07/17 06:28:57;;;;;;;;;17.50;17.50;;;;;22.72;47.95;102036.53;5077517;27;45428;-53
2021/07/17 06:31:22;;;;;;;;;12.25;11.00;;;;;22.72;47.79;102041.81;5077941;27;45529;-58
2021/07/17 06:33:48;;;;;;;;;16.00;15.00;;;;;22.71;47.77;102040.09;5077191;27;47154;-56
2021/07/17 06:36:13;;;;;;;;;19.50;16.75;;;;;22.72;47.69;102044.47;5077238;27;45306;-59
2021/07/17 06:38:38;;;;;;;;;16.25;15.00;;;;;22.72;47.75;102049.75;5077136;27;46009;-55
2021/07/17 06:41:04;;;;;;;;;15.25;12.75;;;;;22.70;48.00;102049.81;5077543;27;45452;-58
2021/07/17 06:43:30;;;;;;;;;17.50;16.25;;;;;22.72;47.67;102055.03;5077061;27;45926;-57
2021/07/17 06:45:55;;;;;;;;;16.25;15.75;;;;;22.73;47.90;102050.59;5077383;27;45227;-53
2021/07/17 06:48:20;;;;;;;;;15.00;15.00;;;;;22.72;47.70;102052.38;5077254;27;45340;-55
2021/07/17 06:50:48;;;;;;;;;19.75;18.25;;;;;22.73;47.80;102056.75;5077286;27;45220;-50
2021/07/17 06:53:14;;;;;;;;;16.75;14.25;;;;;22.73;47.63;102059.38;5076965;27;45310;-50
2021/07/17 06:55:39;;;;;;;;;19.75;17.50;;;;;22.73;47.81;102048.81;5076901;27;45791;-52
2021/07/17 06:58:04;;;;;;;;;16.00;15.00;;;;;22.73;47.65;102054.09;5076985;27;45540;-49
2021/07/17 07:00:33;;;;;;;;;18.25;16.50;;;;;22.73;47.83;102056.75;5077294;27;45615;-49
2021/07/17 07:02:59;;;;;;;;;17.50;14.50;;;;;22.74;47.75;102054.94;5076651;27;46996;-50
2021/07/17 07:05:24;;;;;;;;;16.50;14.50;;;;;22.74;47.75;102061.09;5077102;27;45359;-49
2021/07/17 07:07:50;;;;;;;;;19.75;16.75;;;;;22.75;47.94;102057.53;5075291;28;53425;-53
2021/07/17 07:10:15;;;;;;;;;17.75;14.75;;;;;22.72;47.89;102057.66;5077022;27;45549;-50
2021/07/17 07:12:40;;;;;;;;;20.00;16.50;;;;;22.74;47.82;102061.09;5076648;27;46450;-48
2021/07/17 07:15:07;;;;;;;;;18.75;17.50;;;;;22.77;47.58;102049.53;5076663;27;45306;-49
2021/07/17 07:17:33;;;;;;;;;19.50;18.00;;;;;22.75;47.95;102052.25;5076840;27;45287;-49
2021/07/17 07:19:58;;;;;;;;;18.75;16.00;;;;;22.76;47.87;102056.63;5077401;27;45607;-49
2021/07/17 07:22:24;;;;;;;;;13.25;13.25;;;;;22.78;47.80;102064.47;5076894;27;45241;-51
2021/07/17 07:24:49;;;;;;;;;20.25;16.75;;;;;22.78;47.99;102067.94;5076631;27;45264;-49
2021/07/17 07:27:14;;;;;;;;;19.25;15.00;;;;;22.78;47.80;102070.59;5076670;27;45371;-51
2021/07/17 07:29:40;;;;;;;;;19.75;16.25;;;;;22.78;48.07;102067.09;5076819;27;45560;-55
2021/07/17 07:32:05;;;;;;;;;20.75;18.00;;;;;22.79;47.85;102080.25;5076020;28;53323;-58
2021/07/17 07:34:31;;;;;;;;;20.75;18.75;;;;;22.78;47.63;102078.53;5076427;27;45764;-57
2021/07/17 07:36:56;;;;;;;;;16.75;14.50;;;;;22.76;47.94;102075.13;5076864;27;45446;-57
2021/07/17 07:39:21;;;;;;;;;15.50;15.50;;;;;22.80;47.93;102081.13;5076491;27;45623;-51
2021/07/17 07:41:47;;;;;;;;;16.50;15.50;;;;;22.81;47.90;102083.69;5076186;27;46222;-56
2021/07/17 07:44:12;;;;;;;;;18.50;17.75;;;;;22.81;47.89;102083.69;5076583;27;45551;-53
2021/07/17 07:46:38;;;;;;;;;21.50;16.25;;;;;22.82;47.77;102093.31;5076322;27;45489;-57
2021/07/17 07:49:05;;;;;;;;;16.25;16.25;;;;;22.81;47.76;102088.97;5076502;27;45660;-57
2021/07/17 07:51:31;;;;;;;;;19.00;18.00;;;;;22.83;47.87;102086.25;5076607;27;45578;-54
2021/07/17 07:53:56;;;;;;;;;19.75;19.00;;;;;22.83;47.77;102092.41;5076612;27;45285;-57
2021/07/17 07:56:22;;;;;;;;;15.25;15.25;;;;;22.84;48.03;102087.97;5076324;27;45212;-57
2021/07/17 07:58:47;;;;;;;;;21.00;18.25;;;;;22.83;47.97;102086.25;5075035;28;45557;-58
2021/07/17 08:01:12;;;;;;;;;16.75;15.50;;;;;22.83;47.72;102092.41;5075862;27;46002;-58
2021/07/17 08:03:38;;;;;;;;;18.75;16.50;;;;;22.85;47.78;102094.97;5074724;28;45247;-58
2021/07/17 08:06:03;;;;;;;;;18.75;16.25;;;;;22.83;47.97;102092.41;5076238;27;45367;-58
2021/07/17 08:08:29;;;;;;;;;19.75;15.75;;;;;22.82;48.01;102093.31;5076663;27;45610;-57
2021/07/17 08:10:54;;;;;;;;;17.25;17.25;;;;;22.81;48.03;102099.53;5076039;27;45214;-58
2021/07/17 08:13:19;;;;;;;;;22.50;21.25;;;;;22.82;48.09;102103.06;5075757;27;45294;-59
2021/07/17 08:15:45;;;;;;;;;21.00;19.25;;;;;22.79;48.24;102095.25;5076058;27;45219;-52
2021/07/17 08:18:11;;;;;;;;;20.75;19.25;;;;;22.82;48.24;102095.13;5076089;27;45341;-53
2021/07/17 08:20:40;;;;;;;;;23.00;19.25;;;;;22.82;47.99;102089.84;5075697;27;45348;-50
2021/07/17 08:23:06;;;;;;;;;17.00;16.50;;;;;22.83;48.35;102091.53;5075868;27;45280;-49
2021/07/17 08:25:31;;;;;;;;;22.75;19.00;;;;;22.83;48.04;102087.13;5076182;28;45305;-50
2021/07/17 08:27:56;;;;;;;;;19.25;17.75;;;;;22.83;48.11;102078.31;5076014;27;45234;-52
2021/07/17 08:30:22;;;;;;;;;19.75;17.50;;;;;22.82;48.28;102074.81;5076509;27;50947;-52
2021/07/17 08:32:47;;;;;;;;;21.75;19.75;;;;;22.87;48.44;102081.69;5079184;27;45340;-55
2021/07/17 08:35:13;;;;;;;;;18.50;16.50;;;;;22.85;48.22;102074.69;5079394;27;45348;-52
2021/07/17 08:37:39;;;;;;;;;18.00;17.75;;;;;22.88;48.33;102078.09;5077666;28;45285;-53
2021/07/17 08:40:07;;;;;;;;;19.00;16.50;;;;;22.88;48.29;102086.03;5078769;27;45413;-50
2021/07/17 08:42:41;;;;;;;;;22.75;20.50;;;;;22.91;48.19;102088.53;5079278;27;45359;-50
2021/07/17 08:45:07;;;;;;;;;19.25;16.50;;;;;22.91;48.39;102088.53;5079191;28;45366;-53
2021/07/17 08:47:37;;;;;;;;;21.75;21.00;;;;;22.90;48.33;102086.81;5079476;27;45449;-55
2021/07/17 08:50:05;;;;;;;;;24.75;21.50;;;;;22.92;48.33;102091.13;5079065;27;47207;-54
2021/07/17 08:52:34;;;;;;;;;19.75;18.50;;;;;22.92;48.63;102084.97;5077919;28;45851;-57
2021/07/17 08:55:07;;;;;;;;;20.75;19.25;;;;;22.93;48.17;102097.25;5079403;27;45478;-53
2021/07/17 08:57:41;;;;;;;;;23.00;18.00;;;;;22.91;48.30;102085.91;5079245;27;45481;-50
2021/07/17 09:00:11;;;;;;;;;20.00;20.00;;;;;22.94;48.46;102088.41;5077240;28;47199;-50
2021/07/17 09:02:41;;;;;;;;;20.50;18.00;;;;;22.96;48.41;102091.84;5078724;27;45366;-50
2021/07/17 09:05:09;;;;;;;;;19.75;18.50;;;;;22.95;48.40;102090.13;5078855;27;45461;-52
2021/07/17 09:07:35;;;;;;;;;16.50;16.50;;;;;22.96;48.19;102086.56;5079243;27;45578;-57
2021/07/17 09:10:00;;;;;;;;;18.75;17.00;;;;;22.94;48.29;102078.69;5078769;27;45587;-53
2021/07/17 09:12:26;;;;;;;;;21.25;19.00;;;;;22.95;48.15;102077.75;5078498;27;45326;-53
2021/07/17 09:14:52;;;;;;;;;18.25;15.75;;;;;22.97;48.52;102067.97;5078621;27;45207;-50
2021/07/17 09:17:30;;;;;;;;;20.25;18.00;;;;;22.97;48.40;102070.63;5078845;27;45473;-55
2021/07/17 09:19:59;;;;;;;;;19.25;19.00;;;;;22.99;48.18;102073.19;5078384;27;46958;-50
2021/07/17 09:22:36;;;;;;;;;19.00;17.00;;;;;22.99;48.19;102076.69;5078380;27;45338;-55
2021/07/17 09:25:09;;;;;;;;;24.00;20.75;;;;;23.00;48.47;102074.91;5078842;27;45267;-52
2021/07/17 09:27:34;;;;;;;;;22.25;20.75;;;;;23.01;48.54;102073.97;5078887;27;45538;-53
2021/07/17 09:30:00;;;;;;;;;21.00;15.25;;;;;23.01;48.05;102066.03;5078222;27;46189;-52
2021/07/17 09:32:25;;;;;;;;;21.75;19.75;;;;;23.01;48.54;102060.75;5078419;27;45371;-49
2021/07/17 09:34:50;;;;;;;;;21.00;20.50;;;;;23.03;48.29;102069.47;5078553;27;45360;-50
2021/07/17 09:37:23;;;;;;;;;22.75;20.50;;;;;23.03;48.55;102066.81;5078420;27;45394;-51
2021/07/17 09:39:49;;;;;;;;;27.25;19.25;;;;;23.04;48.43;102062.41;5077864;27;46427;-52
2021/07/17 09:42:20;;;;;;;;;23.25;19.75;;;;;23.06;48.49;102058.75;5076903;27;45326;-50
2021/07/17 09:44:50;;;;;;;;;19.00;19.00;;;;;23.07;48.19;102063.13;5078507;27;45495;-49
2021/07/17 09:47:17;;;;;;;;;18.75;18.50;;;;;23.08;48.33;102058.69;5078331;28;45251;-50
2021/07/17 09:49:43;;;;;;;;;21.50;19.50;;;;;23.08;48.34;102051.63;5077740;27;46218;-57
2021/07/17 09:52:11;;;;;;;;;21.75;19.50;;;;;23.07;48.41;102049.03;5077961;27;45328;-50
2021/07/17 09:55:00;;;;;;;;;23.25;20.00;;;;;23.08;48.36;102048.97;5078082;27;45362;-52
2021/07/17 09:57:33;;;;;;;;;17.50;16.75;;;;;23.08;48.61;102054.25;5078213;27;45370;-55
2021/07/17 10:00:08;;;;;;;;;18.50;16.25;;;;;23.09;48.36;102061.28;5077670;27;46223;-52
2021/07/17 10:02:36;;;;;;;;;23.75;20.50;;;;;23.08;48.55;102058.69;5078093;27;45306;-49
2021/07/17 10:05:06;;;;;;;;;18.50;18.50;;;;;23.07;48.53;102065.75;5078188;27;45753;-52
2021/07/17 10:07:31;;;;;;;;;19.75;17.75;;;;;23.08;48.45;102059.56;5078053;27;45361;-51
2021/07/17 10:09:57;;;;;;;;;19.75;16.50;;;;;23.09;48.31;102060.41;5077737;27;46151;-50
2021/07/17 10:12:37;;;;;;;;;17.75;17.00;;;;;23.05;48.41;102051.75;5077481;27;45495;-53
2021/07/17 10:15:07;;;;;;;;;19.00;19.00;;;;;23.07;48.47;102060.47;5077965;28;45237;-50
2021/07/17 10:17:37;;;;;;;;;17.25;15.50;;;;;23.06;48.75;102056.13;5077678;27;45643;-50
2021/07/17 10:20:07;;;;;;;;;21.25;20.75;;;;;23.06;48.60;102058.75;5077366;27;46546;-52
2021/07/17 10:22:34;;;;;;;;;20.00;17.75;;;;;23.07;48.78;102063.13;5077722;27;45773;-53
2021/07/17 10:25:01;;;;;;;;;21.25;19.75;;;;;23.06;48.56;102064.06;5077531;27;45391;-53
2021/07/17 10:27:26;;;;;;;;;17.75;17.25;;;;;23.08;48.63;102066.59;5077681;27;45436;-57
2021/07/17 10:29:52;;;;;;;;;20.00;18.50;;;;;23.07;48.56;102063.13;5075987;27;46941;-56
2021/07/17 10:32:18;;;;;;;;;19.75;18.75;;;;;23.05;48.53;102053.53;5077348;28;45270;-52
2021/07/17 10:34:45;;;;;;;;;24.25;20.25;;;;;23.07;48.72;102060.47;5077469;27;45212;-58
2021/07/17 10:37:15;;;;;;;;;24.75;21.25;;;;;23.06;48.75;102053.47;5077474;27;45320;-56
2021/07/17 10:39:45;;;;;;;;;23.75;19.25;;;;;23.07;48.55;102057.84;5076930;27;45401;-59
2021/07/17 10:42:21;;;;;;;;;22.75;20.50;;;;;23.07;48.59;102055.19;5075905;28;45584;-57
2021/07/17 10:44:56;;;;;;;;;18.25;17.25;;;;;23.07;48.89;102057.84;5077380;27;45393;-55
2021/07/17 10:47:23;;;;;;;;;20.00;18.50;;;;;23.07;48.61;102049.03;5077549;27;45461;-58
2021/07/17 10:49:50;;;;;;;;;20.75;19.75;;;;;23.07;48.71;102049.91;5077067;27;46054;-58
2021/07/17 10:52:32;;;;;;;;;27.50;20.25;;;;;23.06;48.54;102050.81;5076917;27;45404;-50
2021/07/17 10:55:24;;;;;;;;;18.25;16.75;;;;;23.06;48.61;102040.25;5075554;28;45441;-50
2021/07/17 10:57:50;;;;;;;;;19.00;19.00;;;;;23.07;48.47;102041.09;5077073;27;45359;-50
2021/07/17 11:00:43;;;;;;;;;19.75;18.75;;;;;23.07;48.60;102038.44;5076794;27;46250;-52
2021/07/17 11:03:32;;;;;;;;;18.25;16.25;;;;;23.09;48.53;102040.13;5077082;27;45311;-59
2021/07/17 11:06:26;;;;;;;;;21.00;16.50;;;;;23.07;48.69;102041.09;5076995;27;45368;-58
2021/07/17 11:08:53;;;;;;;;;23.50;21.25;;;;;23.09;48.84;102040.13;5077041;27;45662;-58